<?xml version="1.0" encoding="UTF-8" standalone="no" ?>
<gpx xmlns="http://www.topografix.com/GPX/1/1" xmlns:xsi="http://www.w3.org/2001/XMLSchema-instance" xsi:schemaLocation="http://www.topografix.com/GPX/1/1 http://www.topografix.com/GPX/1/1/gpx.xsd" version="1.1" creator="VisuGPX - https://www.visugpx.com">
  <metadata>
    <name>Sermentizon 17 Avril 47km</name>
  </metadata>
  <trk>
    <name><![CDATA[Sermentizon 17 Avril 47km_1]]></name>
    <extensions>
      <line xmlns="http://www.topografix.com/GPX/gpx_style/0/2">
        <color>0000FF</color>
        <width>4</width>
      </line>
    </extensions>
    <trkseg>
      <trkpt lat="45.83686" lon="3.38368">
        <ele>360</ele>
        <time>2019-07-10T08:42:46Z</time>
      </trkpt>
      <trkpt lat="45.83606" lon="3.38351">
        <ele>360</ele>
        <time>2019-07-10T08:43:05Z</time>
      </trkpt>
      <trkpt lat="45.83548" lon="3.38338">
        <ele>360</ele>
        <time>2019-07-10T08:43:19Z</time>
      </trkpt>
      <trkpt lat="45.83293" lon="3.38235">
        <ele>360</ele>
        <time>2019-07-10T08:44:20Z</time>
      </trkpt>
      <trkpt lat="45.83273" lon="3.38227">
        <ele>360</ele>
        <time>2019-07-10T08:44:25Z</time>
      </trkpt>
      <trkpt lat="45.83214" lon="3.38229">
        <ele>360</ele>
        <time>2019-07-10T08:44:39Z</time>
      </trkpt>
      <trkpt lat="45.83142" lon="3.38287">
        <ele>363</ele>
        <time>2019-07-10T08:44:58Z</time>
      </trkpt>
      <trkpt lat="45.83141" lon="3.38288">
        <ele>364</ele>
        <time>2019-07-10T08:44:59Z</time>
      </trkpt>
      <trkpt lat="45.82863" lon="3.38054">
        <ele>362</ele>
        <time>2019-07-10T08:46:14Z</time>
      </trkpt>
      <trkpt lat="45.82829" lon="3.38025">
        <ele>361</ele>
        <time>2019-07-10T08:46:23Z</time>
      </trkpt>
      <trkpt lat="45.82822" lon="3.37946">
        <ele>358</ele>
        <time>2019-07-10T08:46:36Z</time>
      </trkpt>
      <trkpt lat="45.82761" lon="3.37925">
        <ele>360</ele>
        <time>2019-07-10T08:46:51Z</time>
      </trkpt>
      <trkpt lat="45.82763" lon="3.37905">
        <ele>359</ele>
        <time>2019-07-10T08:46:54Z</time>
      </trkpt>
      <trkpt lat="45.82722" lon="3.3787">
        <ele>358</ele>
        <time>2019-07-10T08:47:05Z</time>
      </trkpt>
      <trkpt lat="45.82722" lon="3.37845">
        <ele>357</ele>
        <time>2019-07-10T08:47:09Z</time>
      </trkpt>
      <trkpt lat="45.82678" lon="3.37817">
        <ele>356</ele>
        <time>2019-07-10T08:47:21Z</time>
      </trkpt>
      <trkpt lat="45.82605" lon="3.3779">
        <ele>355</ele>
        <time>2019-07-10T08:47:38Z</time>
      </trkpt>
      <trkpt lat="45.82501" lon="3.37692">
        <ele>352</ele>
        <time>2019-07-10T08:48:07Z</time>
      </trkpt>
      <trkpt lat="45.82434" lon="3.37629">
        <ele>351</ele>
        <time>2019-07-10T08:48:26Z</time>
      </trkpt>
      <trkpt lat="45.82407" lon="3.37592">
        <ele>351</ele>
        <time>2019-07-10T08:48:35Z</time>
      </trkpt>
      <trkpt lat="45.82329" lon="3.37516">
        <ele>350</ele>
        <time>2019-07-10T08:48:57Z</time>
      </trkpt>
      <trkpt lat="45.82235" lon="3.37498">
        <ele>348</ele>
        <time>2019-07-10T08:49:19Z</time>
      </trkpt>
      <trkpt lat="45.82067" lon="3.37489">
        <ele>346</ele>
        <time>2019-07-10T08:49:58Z</time>
      </trkpt>
      <trkpt lat="45.82031" lon="3.37476">
        <ele>346</ele>
        <time>2019-07-10T08:50:07Z</time>
      </trkpt>
      <trkpt lat="45.82015" lon="3.37412">
        <ele>345</ele>
        <time>2019-07-10T08:50:18Z</time>
      </trkpt>
      <trkpt lat="45.82011" lon="3.37371">
        <ele>342</ele>
        <time>2019-07-10T08:50:24Z</time>
      </trkpt>
      <trkpt lat="45.8193" lon="3.37262">
        <ele>339</ele>
        <time>2019-07-10T08:50:50Z</time>
      </trkpt>
      <trkpt lat="45.8186" lon="3.37142">
        <ele>336</ele>
        <time>2019-07-10T08:51:16Z</time>
      </trkpt>
      <trkpt lat="45.81857" lon="3.37139">
        <ele>336</ele>
        <time>2019-07-10T08:51:17Z</time>
      </trkpt>
      <trkpt lat="45.81765" lon="3.37053">
        <ele>333</ele>
        <time>2019-07-10T08:51:42Z</time>
      </trkpt>
      <trkpt lat="45.81656" lon="3.36987">
        <ele>331</ele>
        <time>2019-07-10T08:52:10Z</time>
      </trkpt>
      <trkpt lat="45.81584" lon="3.36937">
        <ele>330</ele>
        <time>2019-07-10T08:52:29Z</time>
      </trkpt>
      <trkpt lat="45.81532" lon="3.3685">
        <ele>329</ele>
        <time>2019-07-10T08:52:47Z</time>
      </trkpt>
      <trkpt lat="45.81496" lon="3.36876">
        <ele>330</ele>
        <time>2019-07-10T08:52:57Z</time>
      </trkpt>
      <trkpt lat="45.8142" lon="3.36802">
        <ele>330</ele>
        <time>2019-07-10T08:53:18Z</time>
      </trkpt>
      <trkpt lat="45.81352" lon="3.36756">
        <ele>328</ele>
        <time>2019-07-10T08:53:36Z</time>
      </trkpt>
      <trkpt lat="45.81339" lon="3.36883">
        <ele>329</ele>
        <time>2019-07-10T08:53:57Z</time>
      </trkpt>
      <trkpt lat="45.81352" lon="3.3707">
        <ele>331</ele>
        <time>2019-07-10T08:54:27Z</time>
      </trkpt>
      <trkpt lat="45.81362" lon="3.37217">
        <ele>334</ele>
        <time>2019-07-10T08:54:51Z</time>
      </trkpt>
      <trkpt lat="45.81353" lon="3.37401">
        <ele>336</ele>
        <time>2019-07-10T08:55:21Z</time>
      </trkpt>
      <trkpt lat="45.81352" lon="3.3742">
        <ele>336</ele>
        <time>2019-07-10T08:55:24Z</time>
      </trkpt>
      <trkpt lat="45.81297" lon="3.37392">
        <ele>336</ele>
        <time>2019-07-10T08:55:38Z</time>
      </trkpt>
      <trkpt lat="45.81208" lon="3.37403">
        <ele>335</ele>
        <time>2019-07-10T08:55:59Z</time>
      </trkpt>
      <trkpt lat="45.81204" lon="3.37404">
        <ele>335</ele>
        <time>2019-07-10T08:56:00Z</time>
      </trkpt>
      <trkpt lat="45.8113" lon="3.37393">
        <ele>335</ele>
        <time>2019-07-10T08:56:17Z</time>
      </trkpt>
      <trkpt lat="45.81121" lon="3.3741">
        <ele>335</ele>
        <time>2019-07-10T08:56:21Z</time>
      </trkpt>
      <trkpt lat="45.80973" lon="3.37376">
        <ele>334</ele>
        <time>2019-07-10T08:56:56Z</time>
      </trkpt>
      <trkpt lat="45.80963" lon="3.37373">
        <ele>334</ele>
        <time>2019-07-10T08:56:58Z</time>
      </trkpt>
      <trkpt lat="45.80957" lon="3.37456">
        <ele>334</ele>
        <time>2019-07-10T08:57:12Z</time>
      </trkpt>
      <trkpt lat="45.80945" lon="3.37551">
        <ele>335</ele>
        <time>2019-07-10T08:57:27Z</time>
      </trkpt>
      <trkpt lat="45.80961" lon="3.37702">
        <ele>334</ele>
        <time>2019-07-10T08:57:52Z</time>
      </trkpt>
      <trkpt lat="45.80969" lon="3.37778">
        <ele>333</ele>
        <time>2019-07-10T08:58:05Z</time>
      </trkpt>
      <trkpt lat="45.80973" lon="3.37933">
        <ele>331</ele>
        <time>2019-07-10T08:58:30Z</time>
      </trkpt>
      <trkpt lat="45.80974" lon="3.37985">
        <ele>333</ele>
        <time>2019-07-10T08:58:38Z</time>
      </trkpt>
      <trkpt lat="45.80962" lon="3.38164">
        <ele>330</ele>
        <time>2019-07-10T08:59:08Z</time>
      </trkpt>
      <trkpt lat="45.80959" lon="3.38198">
        <ele>330</ele>
        <time>2019-07-10T08:59:13Z</time>
      </trkpt>
      <trkpt lat="45.80827" lon="3.38146">
        <ele>328</ele>
        <time>2019-07-10T08:59:45Z</time>
      </trkpt>
      <trkpt lat="45.80781" lon="3.38128">
        <ele>328</ele>
        <time>2019-07-10T08:59:56Z</time>
      </trkpt>
      <trkpt lat="45.80513" lon="3.38032">
        <ele>330</ele>
        <time>2019-07-10T09:01:01Z</time>
      </trkpt>
      <trkpt lat="45.80502" lon="3.38029">
        <ele>330</ele>
        <time>2019-07-10T09:01:04Z</time>
      </trkpt>
      <trkpt lat="45.80356" lon="3.37975">
        <ele>324</ele>
        <time>2019-07-10T09:01:39Z</time>
      </trkpt>
      <trkpt lat="45.80342" lon="3.3797">
        <ele>324</ele>
        <time>2019-07-10T09:01:42Z</time>
      </trkpt>
      <trkpt lat="45.80329" lon="3.3818">
        <ele>326</ele>
        <time>2019-07-10T09:02:16Z</time>
      </trkpt>
      <trkpt lat="45.80323" lon="3.38271">
        <ele>329</ele>
        <time>2019-07-10T09:02:31Z</time>
      </trkpt>
      <trkpt lat="45.80296" lon="3.38413">
        <ele>327</ele>
        <time>2019-07-10T09:02:55Z</time>
      </trkpt>
      <trkpt lat="45.80274" lon="3.38553">
        <ele>326</ele>
        <time>2019-07-10T09:03:19Z</time>
      </trkpt>
      <trkpt lat="45.80308" lon="3.3867">
        <ele>326</ele>
        <time>2019-07-10T09:03:39Z</time>
      </trkpt>
      <trkpt lat="45.80304" lon="3.38768">
        <ele>327</ele>
        <time>2019-07-10T09:03:55Z</time>
      </trkpt>
      <trkpt lat="45.80303" lon="3.38887">
        <ele>327</ele>
        <time>2019-07-10T09:04:15Z</time>
      </trkpt>
      <trkpt lat="45.80332" lon="3.39071">
        <ele>327</ele>
        <time>2019-07-10T09:04:45Z</time>
      </trkpt>
      <trkpt lat="45.80445" lon="3.39135">
        <ele>330</ele>
        <time>2019-07-10T09:05:14Z</time>
      </trkpt>
      <trkpt lat="45.80508" lon="3.3918">
        <ele>330</ele>
        <time>2019-07-10T09:05:30Z</time>
      </trkpt>
      <trkpt lat="45.80561" lon="3.39327">
        <ele>338</ele>
        <time>2019-07-10T09:05:57Z</time>
      </trkpt>
      <trkpt lat="45.8059" lon="3.39355">
        <ele>341</ele>
        <time>2019-07-10T09:06:05Z</time>
      </trkpt>
      <trkpt lat="45.80585" lon="3.39454">
        <ele>348</ele>
        <time>2019-07-10T09:06:21Z</time>
      </trkpt>
      <trkpt lat="45.80376" lon="3.39635">
        <ele>351</ele>
        <time>2019-07-10T09:07:18Z</time>
      </trkpt>
      <trkpt lat="45.80372" lon="3.39638">
        <ele>351</ele>
        <time>2019-07-10T09:07:20Z</time>
      </trkpt>
      <trkpt lat="45.80368" lon="3.39713">
        <ele>357</ele>
        <time>2019-07-10T09:07:32Z</time>
      </trkpt>
      <trkpt lat="45.80319" lon="3.39763">
        <ele>363</ele>
        <time>2019-07-10T09:07:46Z</time>
      </trkpt>
      <trkpt lat="45.80265" lon="3.39798">
        <ele>374</ele>
        <time>2019-07-10T09:08:00Z</time>
      </trkpt>
      <trkpt lat="45.80117" lon="3.39808">
        <ele>390</ele>
        <time>2019-07-10T09:08:34Z</time>
      </trkpt>
      <trkpt lat="45.80066" lon="3.39811">
        <ele>392</ele>
        <time>2019-07-10T09:08:46Z</time>
      </trkpt>
      <trkpt lat="45.79994" lon="3.3982">
        <ele>395</ele>
        <time>2019-07-10T09:09:03Z</time>
      </trkpt>
      <trkpt lat="45.79905" lon="3.39833">
        <ele>399</ele>
        <time>2019-07-10T09:09:24Z</time>
      </trkpt>
      <trkpt lat="45.79832" lon="3.39886">
        <ele>404</ele>
        <time>2019-07-10T09:09:43Z</time>
      </trkpt>
      <trkpt lat="45.79643" lon="3.39996">
        <ele>410</ele>
        <time>2019-07-10T09:10:31Z</time>
      </trkpt>
      <trkpt lat="45.79519" lon="3.40059">
        <ele>414</ele>
        <time>2019-07-10T09:11:01Z</time>
      </trkpt>
      <trkpt lat="45.79567" lon="3.40218">
        <ele>426</ele>
        <time>2019-07-10T09:11:30Z</time>
      </trkpt>
      <trkpt lat="45.79566" lon="3.40355">
        <ele>435</ele>
        <time>2019-07-10T09:11:52Z</time>
      </trkpt>
      <trkpt lat="45.79748" lon="3.4044">
        <ele>439</ele>
        <time>2019-07-10T09:12:37Z</time>
      </trkpt>
      <trkpt lat="45.79775" lon="3.4047">
        <ele>438</ele>
        <time>2019-07-10T09:12:45Z</time>
      </trkpt>
      <trkpt lat="45.79811" lon="3.40457">
        <ele>437</ele>
        <time>2019-07-10T09:12:53Z</time>
      </trkpt>
      <trkpt lat="45.79845" lon="3.40577">
        <ele>437</ele>
        <time>2019-07-10T09:13:14Z</time>
      </trkpt>
      <trkpt lat="45.79857" lon="3.4065">
        <ele>434</ele>
        <time>2019-07-10T09:13:27Z</time>
      </trkpt>
      <trkpt lat="45.79804" lon="3.40745">
        <ele>429</ele>
        <time>2019-07-10T09:13:46Z</time>
      </trkpt>
      <trkpt lat="45.79746" lon="3.40825">
        <ele>421</ele>
        <time>2019-07-10T09:14:05Z</time>
      </trkpt>
      <trkpt lat="45.79701" lon="3.40903">
        <ele>421</ele>
        <time>2019-07-10T09:14:22Z</time>
      </trkpt>
      <trkpt lat="45.79761" lon="3.41068">
        <ele>414</ele>
        <time>2019-07-10T09:14:52Z</time>
      </trkpt>
      <trkpt lat="45.79776" lon="3.41109">
        <ele>415</ele>
        <time>2019-07-10T09:14:59Z</time>
      </trkpt>
      <trkpt lat="45.79649" lon="3.41147">
        <ele>422</ele>
        <time>2019-07-10T09:15:30Z</time>
      </trkpt>
      <trkpt lat="45.79596" lon="3.41162">
        <ele>424</ele>
        <time>2019-07-10T09:15:42Z</time>
      </trkpt>
      <trkpt lat="45.79252" lon="3.4126">
        <ele>422</ele>
        <time>2019-07-10T09:17:04Z</time>
      </trkpt>
      <trkpt lat="45.79241" lon="3.41263">
        <ele>421</ele>
        <time>2019-07-10T09:17:07Z</time>
      </trkpt>
      <trkpt lat="45.7909" lon="3.41249">
        <ele>415</ele>
        <time>2019-07-10T09:17:42Z</time>
      </trkpt>
      <trkpt lat="45.79083" lon="3.41248">
        <ele>415</ele>
        <time>2019-07-10T09:17:44Z</time>
      </trkpt>
      <trkpt lat="45.7893" lon="3.41223">
        <ele>416</ele>
        <time>2019-07-10T09:18:20Z</time>
      </trkpt>
      <trkpt lat="45.78863" lon="3.41212">
        <ele>415</ele>
        <time>2019-07-10T09:18:36Z</time>
      </trkpt>
      <trkpt lat="45.78845" lon="3.41319">
        <ele>407</ele>
        <time>2019-07-10T09:18:54Z</time>
      </trkpt>
      <trkpt lat="45.78765" lon="3.41324">
        <ele>405</ele>
        <time>2019-07-10T09:19:12Z</time>
      </trkpt>
      <trkpt lat="45.78695" lon="3.41405">
        <ele>398</ele>
        <time>2019-07-10T09:19:33Z</time>
      </trkpt>
      <trkpt lat="45.78669" lon="3.41529">
        <ele>387</ele>
        <time>2019-07-10T09:19:54Z</time>
      </trkpt>
      <trkpt lat="45.78646" lon="3.41636">
        <ele>376</ele>
        <time>2019-07-10T09:20:13Z</time>
      </trkpt>
      <trkpt lat="45.78594" lon="3.41729">
        <ele>366</ele>
        <time>2019-07-10T09:20:32Z</time>
      </trkpt>
      <trkpt lat="45.78556" lon="3.41798">
        <ele>362</ele>
        <time>2019-07-10T09:20:46Z</time>
      </trkpt>
      <trkpt lat="45.78511" lon="3.41995">
        <ele>354</ele>
        <time>2019-07-10T09:21:20Z</time>
      </trkpt>
      <trkpt lat="45.78512" lon="3.4216">
        <ele>350</ele>
        <time>2019-07-10T09:21:47Z</time>
      </trkpt>
      <trkpt lat="45.78367" lon="3.42294">
        <ele>346</ele>
        <time>2019-07-10T09:22:27Z</time>
      </trkpt>
      <trkpt lat="45.7833" lon="3.42377">
        <ele>347</ele>
        <time>2019-07-10T09:22:43Z</time>
      </trkpt>
      <trkpt lat="45.78366" lon="3.42543">
        <ele>346</ele>
        <time>2019-07-10T09:23:12Z</time>
      </trkpt>
      <trkpt lat="45.78294" lon="3.42646">
        <ele>347</ele>
        <time>2019-07-10T09:23:35Z</time>
      </trkpt>
      <trkpt lat="45.78191" lon="3.42511">
        <ele>347</ele>
        <time>2019-07-10T09:24:08Z</time>
      </trkpt>
      <trkpt lat="45.7811" lon="3.42468">
        <ele>347</ele>
        <time>2019-07-10T09:24:28Z</time>
      </trkpt>
      <trkpt lat="45.77989" lon="3.42475">
        <ele>346</ele>
        <time>2019-07-10T09:24:56Z</time>
      </trkpt>
      <trkpt lat="45.77907" lon="3.42415">
        <ele>346</ele>
        <time>2019-07-10T09:25:18Z</time>
      </trkpt>
      <trkpt lat="45.77595" lon="3.42416">
        <ele>344</ele>
        <time>2019-07-10T09:26:31Z</time>
      </trkpt>
      <trkpt lat="45.77534" lon="3.42417">
        <ele>344</ele>
        <time>2019-07-10T09:26:45Z</time>
      </trkpt>
      <trkpt lat="45.77517" lon="3.4235">
        <ele>344</ele>
        <time>2019-07-10T09:26:57Z</time>
      </trkpt>
      <trkpt lat="45.77419" lon="3.42262">
        <ele>344</ele>
        <time>2019-07-10T09:27:24Z</time>
      </trkpt>
      <trkpt lat="45.77315" lon="3.42267">
        <ele>342</ele>
        <time>2019-07-10T09:27:48Z</time>
      </trkpt>
      <trkpt lat="45.77278" lon="3.42322">
        <ele>342</ele>
        <time>2019-07-10T09:28:00Z</time>
      </trkpt>
      <trkpt lat="45.77185" lon="3.42263">
        <ele>344</ele>
        <time>2019-07-10T09:28:24Z</time>
      </trkpt>
      <trkpt lat="45.7717" lon="3.42254">
        <ele>344</ele>
        <time>2019-07-10T09:28:28Z</time>
      </trkpt>
      <trkpt lat="45.77024" lon="3.42243">
        <ele>345</ele>
        <time>2019-07-10T09:29:02Z</time>
      </trkpt>
      <trkpt lat="45.76949" lon="3.42209">
        <ele>345</ele>
        <time>2019-07-10T09:29:20Z</time>
      </trkpt>
      <trkpt lat="45.76929" lon="3.4244">
        <ele>345</ele>
        <time>2019-07-10T09:29:58Z</time>
      </trkpt>
      <trkpt lat="45.76923" lon="3.42505">
        <ele>345</ele>
        <time>2019-07-10T09:30:09Z</time>
      </trkpt>
      <trkpt lat="45.76954" lon="3.42783">
        <ele>347</ele>
        <time>2019-07-10T09:30:55Z</time>
      </trkpt>
      <trkpt lat="45.76962" lon="3.42852">
        <ele>347</ele>
        <time>2019-07-10T09:31:06Z</time>
      </trkpt>
      <trkpt lat="45.76833" lon="3.42877">
        <ele>349</ele>
        <time>2019-07-10T09:31:37Z</time>
      </trkpt>
      <trkpt lat="45.7679" lon="3.42851">
        <ele>349</ele>
        <time>2019-07-10T09:31:48Z</time>
      </trkpt>
      <trkpt lat="45.76691" lon="3.4307">
        <ele>354</ele>
        <time>2019-07-10T09:32:30Z</time>
      </trkpt>
      <trkpt lat="45.76651" lon="3.4319">
        <ele>357</ele>
        <time>2019-07-10T09:32:52Z</time>
      </trkpt>
      <trkpt lat="45.76546" lon="3.43335">
        <ele>361</ele>
        <time>2019-07-10T09:33:26Z</time>
      </trkpt>
      <trkpt lat="45.76536" lon="3.43349">
        <ele>361</ele>
        <time>2019-07-10T09:33:29Z</time>
      </trkpt>
      <trkpt lat="45.76456" lon="3.43233">
        <ele>360</ele>
        <time>2019-07-10T09:33:56Z</time>
      </trkpt>
      <trkpt lat="45.76406" lon="3.43084">
        <ele>358</ele>
        <time>2019-07-10T09:34:23Z</time>
      </trkpt>
      <trkpt lat="45.76384" lon="3.43018">
        <ele>357</ele>
        <time>2019-07-10T09:34:34Z</time>
      </trkpt>
      <trkpt lat="45.76308" lon="3.42903">
        <ele>354</ele>
        <time>2019-07-10T09:35:00Z</time>
      </trkpt>
      <trkpt lat="45.76277" lon="3.42855">
        <ele>352</ele>
        <time>2019-07-10T09:35:11Z</time>
      </trkpt>
      <trkpt lat="45.76162" lon="3.42834">
        <ele>350</ele>
        <time>2019-07-10T09:35:38Z</time>
      </trkpt>
      <trkpt lat="45.76094" lon="3.42821">
        <ele>353</ele>
        <time>2019-07-10T09:35:54Z</time>
      </trkpt>
      <trkpt lat="45.75946" lon="3.42953">
        <ele>357</ele>
        <time>2019-07-10T09:36:35Z</time>
      </trkpt>
      <trkpt lat="45.75911" lon="3.42984">
        <ele>358</ele>
        <time>2019-07-10T09:36:44Z</time>
      </trkpt>
      <trkpt lat="45.75639" lon="3.43093">
        <ele>361</ele>
        <time>2019-07-10T09:37:50Z</time>
      </trkpt>
      <trkpt lat="45.7557" lon="3.43121">
        <ele>362</ele>
        <time>2019-07-10T09:38:07Z</time>
      </trkpt>
      <trkpt lat="45.75533" lon="3.43146">
        <ele>363</ele>
        <time>2019-07-10T09:38:17Z</time>
      </trkpt>
      <trkpt lat="45.75513" lon="3.43194">
        <ele>363</ele>
        <time>2019-07-10T09:38:26Z</time>
      </trkpt>
      <trkpt lat="45.75474" lon="3.43225">
        <ele>363</ele>
        <time>2019-07-10T09:38:36Z</time>
      </trkpt>
      <trkpt lat="45.75413" lon="3.43228">
        <ele>363</ele>
        <time>2019-07-10T09:38:50Z</time>
      </trkpt>
      <trkpt lat="45.75383" lon="3.43286">
        <ele>364</ele>
        <time>2019-07-10T09:39:02Z</time>
      </trkpt>
      <trkpt lat="45.75313" lon="3.43322">
        <ele>369</ele>
        <time>2019-07-10T09:39:19Z</time>
      </trkpt>
      <trkpt lat="45.75129" lon="3.43336">
        <ele>378</ele>
        <time>2019-07-10T09:40:03Z</time>
      </trkpt>
      <trkpt lat="45.75112" lon="3.43338">
        <ele>378</ele>
        <time>2019-07-10T09:40:06Z</time>
      </trkpt>
      <trkpt lat="45.74973" lon="3.43399">
        <ele>390</ele>
        <time>2019-07-10T09:40:40Z</time>
      </trkpt>
      <trkpt lat="45.74966" lon="3.43402">
        <ele>391</ele>
        <time>2019-07-10T09:40:42Z</time>
      </trkpt>
      <trkpt lat="45.74856" lon="3.43494">
        <ele>403</ele>
        <time>2019-07-10T09:41:12Z</time>
      </trkpt>
      <trkpt lat="45.74781" lon="3.43627">
        <ele>414</ele>
        <time>2019-07-10T09:41:40Z</time>
      </trkpt>
      <trkpt lat="45.74727" lon="3.43715">
        <ele>422</ele>
        <time>2019-07-10T09:41:59Z</time>
      </trkpt>
      <trkpt lat="45.7466" lon="3.43714">
        <ele>420</ele>
        <time>2019-07-10T09:42:15Z</time>
      </trkpt>
      <trkpt lat="45.74601" lon="3.43693">
        <ele>418</ele>
        <time>2019-07-10T09:42:29Z</time>
      </trkpt>
      <trkpt lat="45.74556" lon="3.43633">
        <ele>418</ele>
        <time>2019-07-10T09:42:43Z</time>
      </trkpt>
      <trkpt lat="45.7455" lon="3.43757">
        <ele>424</ele>
        <time>2019-07-10T09:43:03Z</time>
      </trkpt>
      <trkpt lat="45.74519" lon="3.44034">
        <ele>448</ele>
        <time>2019-07-10T09:43:49Z</time>
      </trkpt>
      <trkpt lat="45.74517" lon="3.44047">
        <ele>449</ele>
        <time>2019-07-10T09:43:51Z</time>
      </trkpt>
      <trkpt lat="45.74508" lon="3.44274">
        <ele>461</ele>
        <time>2019-07-10T09:44:28Z</time>
      </trkpt>
      <trkpt lat="45.74457" lon="3.4436">
        <ele>466</ele>
        <time>2019-07-10T09:44:47Z</time>
      </trkpt>
      <trkpt lat="45.74546" lon="3.44546">
        <ele>458</ele>
        <time>2019-07-10T09:45:23Z</time>
      </trkpt>
      <trkpt lat="45.74564" lon="3.44583">
        <ele>455</ele>
        <time>2019-07-10T09:45:31Z</time>
      </trkpt>
      <trkpt lat="45.74568" lon="3.44695">
        <ele>448</ele>
        <time>2019-07-10T09:45:49Z</time>
      </trkpt>
      <trkpt lat="45.74627" lon="3.44811">
        <ele>439</ele>
        <time>2019-07-10T09:46:12Z</time>
      </trkpt>
      <trkpt lat="45.74616" lon="3.44864">
        <ele>439</ele>
        <time>2019-07-10T09:46:21Z</time>
      </trkpt>
      <trkpt lat="45.74694" lon="3.4492">
        <ele>441</ele>
        <time>2019-07-10T09:46:42Z</time>
      </trkpt>
      <trkpt lat="45.74742" lon="3.45092">
        <ele>448</ele>
        <time>2019-07-10T09:47:12Z</time>
      </trkpt>
      <trkpt lat="45.74711" lon="3.4518">
        <ele>452</ele>
        <time>2019-07-10T09:47:28Z</time>
      </trkpt>
      <trkpt lat="45.74594" lon="3.45274">
        <ele>458</ele>
        <time>2019-07-10T09:47:59Z</time>
      </trkpt>
      <trkpt lat="45.74538" lon="3.45431">
        <ele>463</ele>
        <time>2019-07-10T09:48:28Z</time>
      </trkpt>
      <trkpt lat="45.7455" lon="3.45572">
        <ele>465</ele>
        <time>2019-07-10T09:48:51Z</time>
      </trkpt>
      <trkpt lat="45.74555" lon="3.45633">
        <ele>465</ele>
        <time>2019-07-10T09:49:01Z</time>
      </trkpt>
      <trkpt lat="45.74505" lon="3.45654">
        <ele>465</ele>
        <time>2019-07-10T09:49:13Z</time>
      </trkpt>
      <trkpt lat="45.74469" lon="3.45826">
        <ele>463</ele>
        <time>2019-07-10T09:49:43Z</time>
      </trkpt>
      <trkpt lat="45.74471" lon="3.45918">
        <ele>460</ele>
        <time>2019-07-10T09:49:58Z</time>
      </trkpt>
      <trkpt lat="45.74445" lon="3.4598">
        <ele>462</ele>
        <time>2019-07-10T09:50:09Z</time>
      </trkpt>
      <trkpt lat="45.74425" lon="3.4607">
        <ele>463</ele>
        <time>2019-07-10T09:50:25Z</time>
      </trkpt>
      <trkpt lat="45.7443" lon="3.46653">
        <ele>455</ele>
        <time>2019-07-10T09:52:00Z</time>
      </trkpt>
      <trkpt lat="45.74431" lon="3.46718">
        <ele>451</ele>
        <time>2019-07-10T09:52:11Z</time>
      </trkpt>
      <trkpt lat="45.74396" lon="3.46785">
        <ele>445</ele>
        <time>2019-07-10T09:52:24Z</time>
      </trkpt>
      <trkpt lat="45.74198" lon="3.46763">
        <ele>442</ele>
        <time>2019-07-10T09:53:11Z</time>
      </trkpt>
      <trkpt lat="45.74171" lon="3.46819">
        <ele>443</ele>
        <time>2019-07-10T09:53:22Z</time>
      </trkpt>
      <trkpt lat="45.74203" lon="3.46856">
        <ele>443</ele>
        <time>2019-07-10T09:53:31Z</time>
      </trkpt>
      <trkpt lat="45.74147" lon="3.47051">
        <ele>462</ele>
        <time>2019-07-10T09:54:06Z</time>
      </trkpt>
      <trkpt lat="45.74112" lon="3.47157">
        <ele>470</ele>
        <time>2019-07-10T09:54:25Z</time>
      </trkpt>
      <trkpt lat="45.74116" lon="3.47313">
        <ele>484</ele>
        <time>2019-07-10T09:54:50Z</time>
      </trkpt>
      <trkpt lat="45.74116" lon="3.47319">
        <ele>485</ele>
        <time>2019-07-10T09:54:51Z</time>
      </trkpt>
      <trkpt lat="45.74065" lon="3.47414">
        <ele>493</ele>
        <time>2019-07-10T09:55:11Z</time>
      </trkpt>
      <trkpt lat="45.74071" lon="3.47476">
        <ele>497</ele>
        <time>2019-07-10T09:55:21Z</time>
      </trkpt>
      <trkpt lat="45.74031" lon="3.47551">
        <ele>501</ele>
        <time>2019-07-10T09:55:36Z</time>
      </trkpt>
      <trkpt lat="45.74044" lon="3.4766">
        <ele>516</ele>
        <time>2019-07-10T09:55:54Z</time>
      </trkpt>
      <trkpt lat="45.74004" lon="3.47766">
        <ele>524</ele>
        <time>2019-07-10T09:56:14Z</time>
      </trkpt>
      <trkpt lat="45.73998" lon="3.47907">
        <ele>530</ele>
        <time>2019-07-10T09:56:37Z</time>
      </trkpt>
      <trkpt lat="45.7401" lon="3.48038">
        <ele>534</ele>
        <time>2019-07-10T09:56:58Z</time>
      </trkpt>
      <trkpt lat="45.74007" lon="3.48175">
        <ele>533</ele>
        <time>2019-07-10T09:57:21Z</time>
      </trkpt>
      <trkpt lat="45.74007" lon="3.4818">
        <ele>532</ele>
        <time>2019-07-10T09:57:22Z</time>
      </trkpt>
      <trkpt lat="45.7415" lon="3.48233">
        <ele>535</ele>
        <time>2019-07-10T09:57:56Z</time>
      </trkpt>
      <trkpt lat="45.74231" lon="3.48216">
        <ele>531</ele>
        <time>2019-07-10T09:58:15Z</time>
      </trkpt>
      <trkpt lat="45.74399" lon="3.4828">
        <ele>522</ele>
        <time>2019-07-10T09:58:56Z</time>
      </trkpt>
      <trkpt lat="45.74505" lon="3.48383">
        <ele>513</ele>
        <time>2019-07-10T09:59:26Z</time>
      </trkpt>
      <trkpt lat="45.74523" lon="3.48508">
        <ele>500</ele>
        <time>2019-07-10T09:59:47Z</time>
      </trkpt>
      <trkpt lat="45.74472" lon="3.48626">
        <ele>491</ele>
        <time>2019-07-10T10:00:09Z</time>
      </trkpt>
      <trkpt lat="45.74488" lon="3.4875">
        <ele>477</ele>
        <time>2019-07-10T10:00:30Z</time>
      </trkpt>
      <trkpt lat="45.7449" lon="3.48772">
        <ele>475</ele>
        <time>2019-07-10T10:00:33Z</time>
      </trkpt>
      <trkpt lat="45.74396" lon="3.48742">
        <ele>481</ele>
        <time>2019-07-10T10:00:56Z</time>
      </trkpt>
      <trkpt lat="45.7435" lon="3.48731">
        <ele>482</ele>
        <time>2019-07-10T10:01:07Z</time>
      </trkpt>
      <trkpt lat="45.74323" lon="3.48763">
        <ele>480</ele>
        <time>2019-07-10T10:01:15Z</time>
      </trkpt>
      <trkpt lat="45.7436" lon="3.48883">
        <ele>474</ele>
        <time>2019-07-10T10:01:36Z</time>
      </trkpt>
      <trkpt lat="45.74359" lon="3.49032">
        <ele>470</ele>
        <time>2019-07-10T10:02:01Z</time>
      </trkpt>
      <trkpt lat="45.74311" lon="3.49115">
        <ele>474</ele>
        <time>2019-07-10T10:02:18Z</time>
      </trkpt>
      <trkpt lat="45.74284" lon="3.49254">
        <ele>485</ele>
        <time>2019-07-10T10:02:42Z</time>
      </trkpt>
      <trkpt lat="45.74267" lon="3.49343">
        <ele>490</ele>
        <time>2019-07-10T10:02:57Z</time>
      </trkpt>
      <trkpt lat="45.74281" lon="3.49465">
        <ele>495</ele>
        <time>2019-07-10T10:03:17Z</time>
      </trkpt>
      <trkpt lat="45.74276" lon="3.49534">
        <ele>497</ele>
        <time>2019-07-10T10:03:28Z</time>
      </trkpt>
      <trkpt lat="45.74284" lon="3.49577">
        <ele>499</ele>
        <time>2019-07-10T10:03:35Z</time>
      </trkpt>
      <trkpt lat="45.74259" lon="3.49706">
        <ele>499</ele>
        <time>2019-07-10T10:03:57Z</time>
      </trkpt>
      <trkpt lat="45.74252" lon="3.49738">
        <ele>499</ele>
        <time>2019-07-10T10:04:03Z</time>
      </trkpt>
      <trkpt lat="45.74354" lon="3.49836">
        <ele>491</ele>
        <time>2019-07-10T10:04:31Z</time>
      </trkpt>
      <trkpt lat="45.74468" lon="3.50414">
        <ele>442</ele>
        <time>2019-07-10T10:06:09Z</time>
      </trkpt>
      <trkpt lat="45.74488" lon="3.50513">
        <ele>438</ele>
        <time>2019-07-10T10:06:26Z</time>
      </trkpt>
      <trkpt lat="45.7457" lon="3.50458">
        <ele>440</ele>
        <time>2019-07-10T10:06:47Z</time>
      </trkpt>
      <trkpt lat="45.74677" lon="3.50438">
        <ele>435</ele>
        <time>2019-07-10T10:07:12Z</time>
      </trkpt>
      <trkpt lat="45.74781" lon="3.50457">
        <ele>431</ele>
        <time>2019-07-10T10:07:37Z</time>
      </trkpt>
      <trkpt lat="45.75054" lon="3.50453">
        <ele>428</ele>
        <time>2019-07-10T10:08:41Z</time>
      </trkpt>
      <trkpt lat="45.7507" lon="3.50453">
        <ele>429</ele>
        <time>2019-07-10T10:08:44Z</time>
      </trkpt>
      <trkpt lat="45.75198" lon="3.50474">
        <ele>424</ele>
        <time>2019-07-10T10:09:14Z</time>
      </trkpt>
      <trkpt lat="45.75255" lon="3.50551">
        <ele>416</ele>
        <time>2019-07-10T10:09:33Z</time>
      </trkpt>
      <trkpt lat="45.75332" lon="3.50592">
        <ele>408</ele>
        <time>2019-07-10T10:09:52Z</time>
      </trkpt>
      <trkpt lat="45.75342" lon="3.50626">
        <ele>410</ele>
        <time>2019-07-10T10:09:58Z</time>
      </trkpt>
      <trkpt lat="45.75332" lon="3.50757">
        <ele>413</ele>
        <time>2019-07-10T10:10:19Z</time>
      </trkpt>
      <trkpt lat="45.75368" lon="3.50916">
        <ele>416</ele>
        <time>2019-07-10T10:10:47Z</time>
      </trkpt>
      <trkpt lat="45.75408" lon="3.51023">
        <ele>416</ele>
        <time>2019-07-10T10:11:06Z</time>
      </trkpt>
      <trkpt lat="45.75439" lon="3.51107">
        <ele>420</ele>
        <time>2019-07-10T10:11:22Z</time>
      </trkpt>
      <trkpt lat="45.75416" lon="3.5115">
        <ele>426</ele>
        <time>2019-07-10T10:11:31Z</time>
      </trkpt>
      <trkpt lat="45.75293" lon="3.51227">
        <ele>437</ele>
        <time>2019-07-10T10:12:02Z</time>
      </trkpt>
      <trkpt lat="45.75236" lon="3.51274">
        <ele>439</ele>
        <time>2019-07-10T10:12:17Z</time>
      </trkpt>
      <trkpt lat="45.75216" lon="3.51365">
        <ele>436</ele>
        <time>2019-07-10T10:12:33Z</time>
      </trkpt>
      <trkpt lat="45.752" lon="3.51457">
        <ele>437</ele>
        <time>2019-07-10T10:12:48Z</time>
      </trkpt>
      <trkpt lat="45.75288" lon="3.51468">
        <ele>441</ele>
        <time>2019-07-10T10:13:09Z</time>
      </trkpt>
      <trkpt lat="45.75196" lon="3.51624">
        <ele>442</ele>
        <time>2019-07-10T10:13:42Z</time>
      </trkpt>
      <trkpt lat="45.75182" lon="3.51648">
        <ele>442</ele>
        <time>2019-07-10T10:13:47Z</time>
      </trkpt>
      <trkpt lat="45.75263" lon="3.51752">
        <ele>443</ele>
        <time>2019-07-10T10:14:13Z</time>
      </trkpt>
      <trkpt lat="45.75326" lon="3.51884">
        <ele>443</ele>
        <time>2019-07-10T10:14:39Z</time>
      </trkpt>
      <trkpt lat="45.75338" lon="3.51907">
        <ele>443</ele>
        <time>2019-07-10T10:14:44Z</time>
      </trkpt>
      <trkpt lat="45.75634" lon="3.51812">
        <ele>439</ele>
        <time>2019-07-10T10:15:54Z</time>
      </trkpt>
      <trkpt lat="45.75658" lon="3.51805">
        <ele>439</ele>
        <time>2019-07-10T10:16:00Z</time>
      </trkpt>
      <trkpt lat="45.75917" lon="3.51877">
        <ele>436</ele>
        <time>2019-07-10T10:17:02Z</time>
      </trkpt>
      <trkpt lat="45.75944" lon="3.51871">
        <ele>434</ele>
        <time>2019-07-10T10:17:08Z</time>
      </trkpt>
      <trkpt lat="45.76004" lon="3.51966">
        <ele>426</ele>
        <time>2019-07-10T10:17:29Z</time>
      </trkpt>
      <trkpt lat="45.76026" lon="3.52002">
        <ele>421</ele>
        <time>2019-07-10T10:17:37Z</time>
      </trkpt>
      <trkpt lat="45.76148" lon="3.52011">
        <ele>402</ele>
        <time>2019-07-10T10:18:05Z</time>
      </trkpt>
      <trkpt lat="45.76213" lon="3.52093">
        <ele>390</ele>
        <time>2019-07-10T10:18:26Z</time>
      </trkpt>
      <trkpt lat="45.76224" lon="3.52107">
        <ele>386</ele>
        <time>2019-07-10T10:18:29Z</time>
      </trkpt>
      <trkpt lat="45.76197" lon="3.52163">
        <ele>385</ele>
        <time>2019-07-10T10:18:40Z</time>
      </trkpt>
      <trkpt lat="45.76197" lon="3.52223">
        <ele>376</ele>
        <time>2019-07-10T10:18:50Z</time>
      </trkpt>
      <trkpt lat="45.76275" lon="3.52292">
        <ele>361</ele>
        <time>2019-07-10T10:19:11Z</time>
      </trkpt>
      <trkpt lat="45.76303" lon="3.52162">
        <ele>365</ele>
        <time>2019-07-10T10:19:33Z</time>
      </trkpt>
      <trkpt lat="45.76321" lon="3.52019">
        <ele>366</ele>
        <time>2019-07-10T10:19:57Z</time>
      </trkpt>
      <trkpt lat="45.76291" lon="3.51972">
        <ele>371</ele>
        <time>2019-07-10T10:20:07Z</time>
      </trkpt>
      <trkpt lat="45.76246" lon="3.51871">
        <ele>374</ele>
        <time>2019-07-10T10:20:27Z</time>
      </trkpt>
      <trkpt lat="45.76234" lon="3.51831">
        <ele>377</ele>
        <time>2019-07-10T10:20:34Z</time>
      </trkpt>
      <trkpt lat="45.76234" lon="3.51733">
        <ele>375</ele>
        <time>2019-07-10T10:20:50Z</time>
      </trkpt>
      <trkpt lat="45.76219" lon="3.51689">
        <ele>379</ele>
        <time>2019-07-10T10:20:58Z</time>
      </trkpt>
      <trkpt lat="45.76188" lon="3.51665">
        <ele>383</ele>
        <time>2019-07-10T10:21:06Z</time>
      </trkpt>
      <trkpt lat="45.76158" lon="3.51647">
        <ele>386</ele>
        <time>2019-07-10T10:21:14Z</time>
      </trkpt>
      <trkpt lat="45.76152" lon="3.51608">
        <ele>385</ele>
        <time>2019-07-10T10:21:20Z</time>
      </trkpt>
      <trkpt lat="45.76138" lon="3.51573">
        <ele>386</ele>
        <time>2019-07-10T10:21:27Z</time>
      </trkpt>
      <trkpt lat="45.76134" lon="3.51502">
        <ele>381</ele>
        <time>2019-07-10T10:21:39Z</time>
      </trkpt>
      <trkpt lat="45.76116" lon="3.51439">
        <ele>381</ele>
        <time>2019-07-10T10:21:50Z</time>
      </trkpt>
      <trkpt lat="45.76102" lon="3.51402">
        <ele>383</ele>
        <time>2019-07-10T10:21:56Z</time>
      </trkpt>
      <trkpt lat="45.76126" lon="3.51388">
        <ele>385</ele>
        <time>2019-07-10T10:22:03Z</time>
      </trkpt>
      <trkpt lat="45.76109" lon="3.51372">
        <ele>388</ele>
        <time>2019-07-10T10:22:07Z</time>
      </trkpt>
      <trkpt lat="45.76084" lon="3.51281">
        <ele>403</ele>
        <time>2019-07-10T10:22:23Z</time>
      </trkpt>
      <trkpt lat="45.76073" lon="3.51247">
        <ele>408</ele>
        <time>2019-07-10T10:22:29Z</time>
      </trkpt>
      <trkpt lat="45.76125" lon="3.51088">
        <ele>423</ele>
        <time>2019-07-10T10:22:58Z</time>
      </trkpt>
      <trkpt lat="45.76159" lon="3.50989">
        <ele>432</ele>
        <time>2019-07-10T10:23:16Z</time>
      </trkpt>
      <trkpt lat="45.76176" lon="3.50958">
        <ele>433</ele>
        <time>2019-07-10T10:23:22Z</time>
      </trkpt>
      <trkpt lat="45.76196" lon="3.50955">
        <ele>433</ele>
        <time>2019-07-10T10:23:27Z</time>
      </trkpt>
      <trkpt lat="45.76191" lon="3.50874">
        <ele>433</ele>
        <time>2019-07-10T10:23:40Z</time>
      </trkpt>
      <trkpt lat="45.76184" lon="3.50797">
        <ele>432</ele>
        <time>2019-07-10T10:23:53Z</time>
      </trkpt>
      <trkpt lat="45.76181" lon="3.50746">
        <ele>431</ele>
        <time>2019-07-10T10:24:01Z</time>
      </trkpt>
      <trkpt lat="45.76191" lon="3.50681">
        <ele>432</ele>
        <time>2019-07-10T10:24:12Z</time>
      </trkpt>
      <trkpt lat="45.76163" lon="3.5056">
        <ele>431</ele>
        <time>2019-07-10T10:24:33Z</time>
      </trkpt>
      <trkpt lat="45.76125" lon="3.50446">
        <ele>431</ele>
        <time>2019-07-10T10:24:53Z</time>
      </trkpt>
      <trkpt lat="45.76135" lon="3.50309">
        <ele>436</ele>
        <time>2019-07-10T10:25:16Z</time>
      </trkpt>
      <trkpt lat="45.76156" lon="3.50166">
        <ele>449</ele>
        <time>2019-07-10T10:25:40Z</time>
      </trkpt>
      <trkpt lat="45.76158" lon="3.50152">
        <ele>450</ele>
        <time>2019-07-10T10:25:42Z</time>
      </trkpt>
      <trkpt lat="45.76204" lon="3.5012">
        <ele>453</ele>
        <time>2019-07-10T10:25:54Z</time>
      </trkpt>
      <trkpt lat="45.76215" lon="3.50036">
        <ele>455</ele>
        <time>2019-07-10T10:26:08Z</time>
      </trkpt>
      <trkpt lat="45.7604" lon="3.49883">
        <ele>450</ele>
        <time>2019-07-10T10:26:56Z</time>
      </trkpt>
      <trkpt lat="45.76016" lon="3.49677">
        <ele>452</ele>
        <time>2019-07-10T10:27:30Z</time>
      </trkpt>
      <trkpt lat="45.76128" lon="3.49456">
        <ele>441</ele>
        <time>2019-07-10T10:28:14Z</time>
      </trkpt>
      <trkpt lat="45.76164" lon="3.49452">
        <ele>437</ele>
        <time>2019-07-10T10:28:23Z</time>
      </trkpt>
      <trkpt lat="45.76133" lon="3.49184">
        <ele>422</ele>
        <time>2019-07-10T10:29:07Z</time>
      </trkpt>
      <trkpt lat="45.76073" lon="3.4914">
        <ele>418</ele>
        <time>2019-07-10T10:29:23Z</time>
      </trkpt>
      <trkpt lat="45.76103" lon="3.49019">
        <ele>408</ele>
        <time>2019-07-10T10:29:44Z</time>
      </trkpt>
      <trkpt lat="45.7611" lon="3.4899">
        <ele>404</ele>
        <time>2019-07-10T10:29:49Z</time>
      </trkpt>
      <trkpt lat="45.76053" lon="3.48924">
        <ele>400</ele>
        <time>2019-07-10T10:30:06Z</time>
      </trkpt>
      <trkpt lat="45.76042" lon="3.48853">
        <ele>394</ele>
        <time>2019-07-10T10:30:18Z</time>
      </trkpt>
      <trkpt lat="45.76071" lon="3.48784">
        <ele>394</ele>
        <time>2019-07-10T10:30:31Z</time>
      </trkpt>
      <trkpt lat="45.75985" lon="3.48698">
        <ele>401</ele>
        <time>2019-07-10T10:30:55Z</time>
      </trkpt>
      <trkpt lat="45.75938" lon="3.48574">
        <ele>409</ele>
        <time>2019-07-10T10:31:18Z</time>
      </trkpt>
      <trkpt lat="45.75896" lon="3.48469">
        <ele>416</ele>
        <time>2019-07-10T10:31:38Z</time>
      </trkpt>
      <trkpt lat="45.75884" lon="3.48441">
        <ele>418</ele>
        <time>2019-07-10T10:31:43Z</time>
      </trkpt>
      <trkpt lat="45.75884" lon="3.48338">
        <ele>427</ele>
        <time>2019-07-10T10:32:00Z</time>
      </trkpt>
      <trkpt lat="45.75842" lon="3.4822">
        <ele>420</ele>
        <time>2019-07-10T10:32:22Z</time>
      </trkpt>
      <trkpt lat="45.75633" lon="3.47778">
        <ele>426</ele>
        <time>2019-07-10T10:33:49Z</time>
      </trkpt>
      <trkpt lat="45.75627" lon="3.47765">
        <ele>425</ele>
        <time>2019-07-10T10:33:51Z</time>
      </trkpt>
      <trkpt lat="45.75509" lon="3.4763">
        <ele>423</ele>
        <time>2019-07-10T10:34:26Z</time>
      </trkpt>
      <trkpt lat="45.75485" lon="3.47602">
        <ele>423</ele>
        <time>2019-07-10T10:34:34Z</time>
      </trkpt>
      <trkpt lat="45.75404" lon="3.47523">
        <ele>423</ele>
        <time>2019-07-10T10:34:57Z</time>
      </trkpt>
      <trkpt lat="45.75338" lon="3.47508">
        <ele>421</ele>
        <time>2019-07-10T10:35:12Z</time>
      </trkpt>
      <trkpt lat="45.75305" lon="3.47422">
        <ele>427</ele>
        <time>2019-07-10T10:35:28Z</time>
      </trkpt>
      <trkpt lat="45.75335" lon="3.47325">
        <ele>438</ele>
        <time>2019-07-10T10:35:45Z</time>
      </trkpt>
      <trkpt lat="45.75299" lon="3.4719">
        <ele>452</ele>
        <time>2019-07-10T10:36:09Z</time>
      </trkpt>
      <trkpt lat="45.75318" lon="3.47085">
        <ele>463</ele>
        <time>2019-07-10T10:36:27Z</time>
      </trkpt>
      <trkpt lat="45.7538" lon="3.46956">
        <ele>475</ele>
        <time>2019-07-10T10:36:52Z</time>
      </trkpt>
      <trkpt lat="45.75481" lon="3.46922">
        <ele>484</ele>
        <time>2019-07-10T10:37:16Z</time>
      </trkpt>
      <trkpt lat="45.75527" lon="3.46907">
        <ele>487</ele>
        <time>2019-07-10T10:37:27Z</time>
      </trkpt>
      <trkpt lat="45.75601" lon="3.46783">
        <ele>487</ele>
        <time>2019-07-10T10:37:54Z</time>
      </trkpt>
      <trkpt lat="45.75634" lon="3.46729">
        <ele>485</ele>
        <time>2019-07-10T10:38:06Z</time>
      </trkpt>
      <trkpt lat="45.75664" lon="3.46673">
        <ele>482</ele>
        <time>2019-07-10T10:38:17Z</time>
      </trkpt>
      <trkpt lat="45.75652" lon="3.46624">
        <ele>484.3</ele>
        <time>2019-07-10T10:38:25Z</time>
      </trkpt>
      <trkpt lat="45.75604" lon="3.4657">
        <ele>486.1</ele>
        <time>2019-07-10T10:38:48Z</time>
      </trkpt>
      <trkpt lat="45.75742" lon="3.46464">
        <ele>475.2</ele>
        <time>2019-07-10T10:39:01Z</time>
      </trkpt>
      <trkpt lat="45.75855" lon="3.46335">
        <ele>454.2</ele>
        <time>2019-07-10T10:39:15Z</time>
      </trkpt>
      <trkpt lat="45.75972" lon="3.46264">
        <ele>433.6</ele>
        <time>2019-07-10T10:39:27Z</time>
      </trkpt>
      <trkpt lat="45.76052" lon="3.4618">
        <ele>416.5</ele>
        <time>2019-07-10T10:39:52Z</time>
      </trkpt>
      <trkpt lat="45.76131" lon="3.46163">
        <ele>413.5</ele>
        <time>2019-07-10T10:40:19Z</time>
      </trkpt>
      <trkpt lat="45.76247" lon="3.46068">
        <ele>414</ele>
        <time>2019-07-10T10:40:36Z</time>
      </trkpt>
      <trkpt lat="45.76325" lon="3.46122">
        <ele>409.9</ele>
        <time>2019-07-10T10:40:49Z</time>
      </trkpt>
      <trkpt lat="45.76438" lon="3.46105">
        <ele>407.2</ele>
        <time>2019-07-10T10:41:07Z</time>
      </trkpt>
      <trkpt lat="45.76621" lon="3.46031">
        <ele>404.6</ele>
      </trkpt>
      <trkpt lat="45.76737" lon="3.46018">
        <ele>401.2</ele>
        <time>2019-07-10T10:41:22Z</time>
      </trkpt>
      <trkpt lat="45.76847" lon="3.45974">
        <ele>398</ele>
        <time>2019-07-10T10:41:40Z</time>
      </trkpt>
      <trkpt lat="45.77146" lon="3.45902">
        <ele>393</ele>
      </trkpt>
      <trkpt lat="45.77192" lon="3.45863">
        <ele>391.2</ele>
      </trkpt>
      <trkpt lat="45.77261" lon="3.4576">
        <ele>390.2</ele>
        <time>2019-07-10T10:41:53Z</time>
      </trkpt>
      <trkpt lat="45.77372" lon="3.45698">
        <ele>389.1</ele>
        <time>2019-07-10T10:42:05Z</time>
      </trkpt>
      <trkpt lat="45.77534" lon="3.45329">
        <ele>378</ele>
        <time>2019-07-10T10:42:26Z</time>
      </trkpt>
      <trkpt lat="45.77613" lon="3.45164">
        <ele>375</ele>
      </trkpt>
      <trkpt lat="45.7771" lon="3.45226">
        <ele>376</ele>
      </trkpt>
      <trkpt lat="45.77867" lon="3.4529">
        <ele>375.3</ele>
        <time>2019-07-10T10:49:54Z</time>
      </trkpt>
      <trkpt lat="45.7796" lon="3.45323">
        <ele>375.8</ele>
        <time>2019-07-10T10:50:27Z</time>
      </trkpt>
      <trkpt lat="45.78004" lon="3.45087">
        <ele>373</ele>
        <time>2019-07-10T10:51:19Z</time>
      </trkpt>
      <trkpt lat="45.78041" lon="3.44979">
        <ele>371.6</ele>
        <time>2019-07-10T10:52:00Z</time>
      </trkpt>
      <trkpt lat="45.78042" lon="3.4476">
        <ele>370.7</ele>
        <time>2019-07-10T10:52:26Z</time>
      </trkpt>
      <trkpt lat="45.7805" lon="3.44636">
        <ele>370</ele>
        <time>2019-07-10T10:53:21Z</time>
      </trkpt>
      <trkpt lat="45.78153" lon="3.44076">
        <ele>361.9</ele>
        <time>2019-07-10T10:54:18Z</time>
      </trkpt>
      <trkpt lat="45.78247" lon="3.44366">
        <ele>363.2</ele>
        <time>2019-07-10T10:55:15Z</time>
      </trkpt>
      <trkpt lat="45.78271" lon="3.44411">
        <ele>363.6</ele>
        <time>2019-07-10T11:01:59Z</time>
      </trkpt>
      <trkpt lat="45.783" lon="3.44381">
        <ele>362</ele>
        <time>2019-07-10T11:02:33Z</time>
      </trkpt>
      <trkpt lat="45.78351" lon="3.44295">
        <ele>362.5</ele>
        <time>2019-07-10T11:02:41Z</time>
      </trkpt>
      <trkpt lat="45.78387" lon="3.442">
        <ele>363</ele>
        <time>2019-07-10T11:03:08Z</time>
      </trkpt>
      <trkpt lat="45.78386" lon="3.44151">
        <ele>362</ele>
        <time>2019-07-10T11:03:16Z</time>
      </trkpt>
      <trkpt lat="45.78497" lon="3.4408">
        <ele>365</ele>
        <time>2019-07-10T11:03:45Z</time>
      </trkpt>
      <trkpt lat="45.78503" lon="3.44076">
        <ele>365</ele>
        <time>2019-07-10T11:03:46Z</time>
      </trkpt>
      <trkpt lat="45.78613" lon="3.44025">
        <ele>366</ele>
        <time>2019-07-10T11:04:13Z</time>
      </trkpt>
      <trkpt lat="45.78667" lon="3.43913">
        <ele>364</ele>
        <time>2019-07-10T11:04:35Z</time>
      </trkpt>
      <trkpt lat="45.78696" lon="3.44012">
        <ele>365</ele>
        <time>2019-07-10T11:04:53Z</time>
      </trkpt>
      <trkpt lat="45.7878" lon="3.44203">
        <ele>371</ele>
        <time>2019-07-10T11:05:30Z</time>
      </trkpt>
      <trkpt lat="45.78877" lon="3.44288">
        <ele>371</ele>
        <time>2019-07-10T11:05:56Z</time>
      </trkpt>
      <trkpt lat="45.7896" lon="3.44283">
        <ele>373</ele>
        <time>2019-07-10T11:06:16Z</time>
      </trkpt>
      <trkpt lat="45.79038" lon="3.44278">
        <ele>375</ele>
        <time>2019-07-10T11:06:34Z</time>
      </trkpt>
      <trkpt lat="45.79119" lon="3.44309">
        <ele>378</ele>
        <time>2019-07-10T11:06:53Z</time>
      </trkpt>
      <trkpt lat="45.79184" lon="3.44334">
        <ele>381</ele>
        <time>2019-07-10T11:07:09Z</time>
      </trkpt>
      <trkpt lat="45.79321" lon="3.44351">
        <ele>386</ele>
        <time>2019-07-10T11:07:41Z</time>
      </trkpt>
      <trkpt lat="45.79423" lon="3.44364">
        <ele>393</ele>
        <time>2019-07-10T11:08:05Z</time>
      </trkpt>
      <trkpt lat="45.79515" lon="3.44411">
        <ele>401</ele>
        <time>2019-07-10T11:08:28Z</time>
      </trkpt>
      <trkpt lat="45.79589" lon="3.44449">
        <ele>406</ele>
        <time>2019-07-10T11:08:46Z</time>
      </trkpt>
      <trkpt lat="45.79672" lon="3.4444">
        <ele>408</ele>
        <time>2019-07-10T11:09:06Z</time>
      </trkpt>
      <trkpt lat="45.79677" lon="3.4444">
        <ele>409</ele>
        <time>2019-07-10T11:09:07Z</time>
      </trkpt>
      <trkpt lat="45.79817" lon="3.44339">
        <ele>418</ele>
        <time>2019-07-10T11:09:44Z</time>
      </trkpt>
      <trkpt lat="45.79831" lon="3.44328">
        <ele>419</ele>
        <time>2019-07-10T11:09:47Z</time>
      </trkpt>
      <trkpt lat="45.79987" lon="3.44092">
        <ele>417</ele>
        <time>2019-07-10T11:10:40Z</time>
      </trkpt>
      <trkpt lat="45.80006" lon="3.44062">
        <ele>417</ele>
        <time>2019-07-10T11:10:47Z</time>
      </trkpt>
      <trkpt lat="45.80134" lon="3.44004">
        <ele>423</ele>
        <time>2019-07-10T11:11:18Z</time>
      </trkpt>
      <trkpt lat="45.80157" lon="3.43994">
        <ele>424</ele>
        <time>2019-07-10T11:11:24Z</time>
      </trkpt>
      <trkpt lat="45.80416" lon="3.43779">
        <ele>421</ele>
        <time>2019-07-10T11:12:34Z</time>
      </trkpt>
      <trkpt lat="45.80452" lon="3.43749">
        <ele>420</ele>
        <time>2019-07-10T11:12:43Z</time>
      </trkpt>
      <trkpt lat="45.80599" lon="3.43552">
        <ele>418</ele>
        <time>2019-07-10T11:13:30Z</time>
      </trkpt>
      <trkpt lat="45.80651" lon="3.43483">
        <ele>419</ele>
        <time>2019-07-10T11:13:47Z</time>
      </trkpt>
      <trkpt lat="45.80821" lon="3.43216">
        <ele>418</ele>
        <time>2019-07-10T11:14:46Z</time>
      </trkpt>
      <trkpt lat="45.80829" lon="3.43204">
        <ele>418</ele>
        <time>2019-07-10T11:14:49Z</time>
      </trkpt>
      <trkpt lat="45.80857" lon="3.43158">
        <ele>419</ele>
        <time>2019-07-10T11:14:58Z</time>
      </trkpt>
      <trkpt lat="45.80908" lon="3.43139">
        <ele>420</ele>
        <time>2019-07-10T11:15:11Z</time>
      </trkpt>
      <trkpt lat="45.8092" lon="3.43053">
        <ele>415</ele>
        <time>2019-07-10T11:15:25Z</time>
      </trkpt>
      <trkpt lat="45.80955" lon="3.42947">
        <ele>403</ele>
        <time>2019-07-10T11:15:44Z</time>
      </trkpt>
      <trkpt lat="45.81077" lon="3.42659">
        <ele>383</ele>
        <time>2019-07-10T11:16:39Z</time>
      </trkpt>
      <trkpt lat="45.81081" lon="3.42648">
        <ele>382</ele>
        <time>2019-07-10T11:16:41Z</time>
      </trkpt>
      <trkpt lat="45.81109" lon="3.42433">
        <ele>374</ele>
        <time>2019-07-10T11:17:17Z</time>
      </trkpt>
      <trkpt lat="45.81113" lon="3.424">
        <ele>373</ele>
        <time>2019-07-10T11:17:22Z</time>
      </trkpt>
      <trkpt lat="45.81825" lon="3.41921">
        <ele>365</ele>
        <time>2019-07-10T11:20:26Z</time>
      </trkpt>
      <trkpt lat="45.81846" lon="3.41908">
        <ele>365</ele>
        <time>2019-07-10T11:20:31Z</time>
      </trkpt>
      <trkpt lat="45.82386" lon="3.41818">
        <ele>361</ele>
        <time>2019-07-10T11:22:38Z</time>
      </trkpt>
      <trkpt lat="45.82431" lon="3.41811">
        <ele>361</ele>
        <time>2019-07-10T11:22:49Z</time>
      </trkpt>
      <trkpt lat="45.8248" lon="3.41648">
        <ele>358</ele>
        <time>2019-07-10T11:23:17Z</time>
      </trkpt>
      <trkpt lat="45.8252" lon="3.41564">
        <ele>358</ele>
        <time>2019-07-10T11:23:34Z</time>
      </trkpt>
      <trkpt lat="45.82469" lon="3.41101">
        <ele>357</ele>
        <time>2019-07-10T11:24:50Z</time>
      </trkpt>
      <trkpt lat="45.82381" lon="3.41064">
        <ele>353</ele>
        <time>2019-07-10T11:25:12Z</time>
      </trkpt>
      <trkpt lat="45.82377" lon="3.40733">
        <ele>353</ele>
        <time>2019-07-10T11:26:06Z</time>
      </trkpt>
      <trkpt lat="45.82377" lon="3.40674">
        <ele>353</ele>
        <time>2019-07-10T11:26:15Z</time>
      </trkpt>
      <trkpt lat="45.82413" lon="3.40391">
        <ele>356</ele>
        <time>2019-07-10T11:27:02Z</time>
      </trkpt>
      <trkpt lat="45.82417" lon="3.40358">
        <ele>356</ele>
        <time>2019-07-10T11:27:07Z</time>
      </trkpt>
      <trkpt lat="45.82599" lon="3.40181">
        <ele>358</ele>
        <time>2019-07-10T11:27:59Z</time>
      </trkpt>
      <trkpt lat="45.82612" lon="3.40169">
        <ele>358</ele>
        <time>2019-07-10T11:28:02Z</time>
      </trkpt>
      <trkpt lat="45.82613" lon="3.39986">
        <ele>356</ele>
        <time>2019-07-10T11:28:32Z</time>
      </trkpt>
      <trkpt lat="45.82601" lon="3.39877">
        <ele>356</ele>
        <time>2019-07-10T11:28:50Z</time>
      </trkpt>
      <trkpt lat="45.82664" lon="3.39759">
        <ele>361</ele>
        <time>2019-07-10T11:29:14Z</time>
      </trkpt>
      <trkpt lat="45.82678" lon="3.39733">
        <ele>361</ele>
        <time>2019-07-10T11:29:20Z</time>
      </trkpt>
      <trkpt lat="45.82734" lon="3.39551">
        <ele>362</ele>
        <time>2019-07-10T11:29:52Z</time>
      </trkpt>
      <trkpt lat="45.82761" lon="3.39462">
        <ele>364</ele>
        <time>2019-07-10T11:30:08Z</time>
      </trkpt>
      <trkpt lat="45.82768" lon="3.39328">
        <ele>366</ele>
        <time>2019-07-10T11:30:30Z</time>
      </trkpt>
      <trkpt lat="45.82768" lon="3.39316">
        <ele>366</ele>
        <time>2019-07-10T11:30:32Z</time>
      </trkpt>
      <trkpt lat="45.82771" lon="3.39096">
        <ele>366</ele>
        <time>2019-07-10T11:31:07Z</time>
      </trkpt>
      <trkpt lat="45.82771" lon="3.39052">
        <ele>366</ele>
        <time>2019-07-10T11:31:15Z</time>
      </trkpt>
      <trkpt lat="45.828" lon="3.38696">
        <ele>365</ele>
        <time>2019-07-10T11:32:13Z</time>
      </trkpt>
      <trkpt lat="45.82815" lon="3.38571">
        <ele>365</ele>
        <time>2019-07-10T11:32:34Z</time>
      </trkpt>
      <trkpt lat="45.82787" lon="3.3841">
        <ele>362</ele>
        <time>2019-07-10T11:33:01Z</time>
      </trkpt>
      <trkpt lat="45.82782" lon="3.38382">
        <ele>362</ele>
        <time>2019-07-10T11:33:05Z</time>
      </trkpt>
      <trkpt lat="45.82923" lon="3.38407">
        <ele>364</ele>
        <time>2019-07-10T11:33:39Z</time>
      </trkpt>
      <trkpt lat="45.82942" lon="3.3841">
        <ele>364</ele>
        <time>2019-07-10T11:33:43Z</time>
      </trkpt>
      <trkpt lat="45.83082" lon="3.38446">
        <ele>367</ele>
        <time>2019-07-10T11:34:16Z</time>
      </trkpt>
      <trkpt lat="45.8313" lon="3.38458">
        <ele>367</ele>
        <time>2019-07-10T11:34:28Z</time>
      </trkpt>
      <trkpt lat="45.83157" lon="3.38304">
        <ele>364</ele>
        <time>2019-07-10T11:34:53Z</time>
      </trkpt>
      <trkpt lat="45.83218" lon="3.38243">
        <ele>361</ele>
        <time>2019-07-10T11:35:11Z</time>
      </trkpt>
      <trkpt lat="45.83287" lon="3.38247">
        <ele>361</ele>
        <time>2019-07-10T11:35:27Z</time>
      </trkpt>
      <trkpt lat="45.83464" lon="3.38316">
        <ele>362</ele>
        <time>2019-07-10T11:36:10Z</time>
      </trkpt>
      <trkpt lat="45.83496" lon="3.38329">
        <ele>361</ele>
        <time>2019-07-10T11:36:17Z</time>
      </trkpt>
      <trkpt lat="45.83685" lon="3.3838">
        <ele>360</ele>
        <time>2019-07-10T11:37:02Z</time>
      </trkpt>
    </trkseg>
  </trk>
</gpx>